Alpha, Minnesota
Current Conditions -  °F | °C
As of 4:54 AM on Sunday 26 Oct 2014 (Local Time) from KMJQ Reporting Station
Scattered Clouds Scattered Clouds  
Wind Chill: 36°   Ceiling: Unl
Heat Index: 41°   Visibility: 10mi
Dew Point: 30°   Wind: 7mph
Humidity: 65%   Direction: 130°SE
Pressure: 29.99"   Gusts: NA
Location:  43.64°N, 94.87°W
Report Text: KMJQ 260954Z AUTO 13006KT 10SM SCT110 05/M01 A2999 RMK AO2
Loading
Personal Weather Stations






























Interactive Weather Map
Tropical Storm Tracking
New forecast layout! Learn more

10-Day Weather Forecast

Advertisements
Track Severe Weather on mobile